sensor_id;sensor_type;location;lat;lon;timestamp;temperature;humidity
19292;DHT22;9779;51.756;7.450;2023-05-10T00:01:32;14.90;99.90
19292;DHT22;9779;51.756;7.450;2023-05-10T00:03:58;14.80;99.90
19292;DHT22;9779;51.756;7.450;2023-05-10T00:06:23;14.80;99.90
19292;DHT22;9779;51.756;7.450;2023-05-10T00:08:49;14.70;99.90
19292;DHT22;9779;51.756;7.450;2023-05-10T00:11:15;14.70;99.90
19292;DHT22;9779;51.756;7.450;2023-05-10T00:13:40;14.60;99.90
19292;DHT22;9779;51.756;7.450;2023-05-10T00:16:06;14.60;99.90
19292;DHT22;9779;51.756;7.450;2023-05-10T00:18:31;14.70;99.90
19292;DHT22;9779;51.756;7.450;2023-05-10T00:20:57;14.60;99.90
19292;DHT22;9779;51.756;7.450;2023-05-10T00:23:22;14.60;99.90
19292;DHT22;9779;51.756;7.450;2023-05-10T00:25:48;14.50;99.90
19292;DHT22;9779;51.756;7.450;2023-05-10T00:28:13;14.60;99.90
19292;DHT22;9779;51.756;7.450;2023-05-10T00:30:39;14.60;99.90
19292;DHT22;9779;51.756;7.450;2023-05-10T00:33:04;14.50;99.90
19292;DHT22;9779;51.756;7.450;2023-05-10T00:35:30;14.50;99.90
19292;DHT22;9779;51.756;7.450;2023-05-10T00:37:55;14.50;99.90
19292;DHT22;9779;51.756;7.450;2023-05-10T00:40:21;14.60;99.90
19292;DHT22;9779;51.756;7.450;2023-05-10T00:42:47;14.50;99.90
19292;DHT22;9779;51.756;7.450;2023-05-10T00:45:12;14.50;99.90
19292;DHT22;9779;51.756;7.450;2023-05-10T00:47:38;14.50;99.90
19292;DHT22;9779;51.756;7.450;2023-05-10T00:50:05;14.40;99.90
19292;DHT22;9779;51.756;7.450;2023-05-10T00:52:31;14.40;99.90
19292;DHT22;9779;51.756;7.450;2023-05-10T00:54:57;14.40;99.90
19292;DHT22;9779;51.756;7.450;2023-05-10T00:57:24;14.40;99.90
19292;DHT22;9779;51.756;7.450;2023-05-10T00:59:49;14.30;99.90
19292;DHT22;9779;51.756;7.450;2023-05-10T01:02:15;14.40;99.90
19292;DHT22;9779;51.756;7.450;2023-05-10T01:04:41;14.30;99.90
19292;DHT22;9779;51.756;7.450;2023-05-10T01:07:07;14.20;99.90
19292;DHT22;9779;51.756;7.450;2023-05-10T01:09:33;14.20;99.90
19292;DHT22;9779;51.756;7.450;2023-05-10T01:11:59;14.30;99.90
19292;DHT22;9779;51.756;7.450;2023-05-10T01:14:26;14.30;99.90
19292;DHT22;9779;51.756;7.450;2023-05-10T01:16:52;14.30;99.90
19292;DHT22;9779;51.756;7.450;2023-05-10T01:19:23;14.20;99.90
19292;DHT22;9779;51.756;7.450;2023-05-10T01:33:30;14.00;99.90
19292;DHT22;9779;51.756;7.450;2023-05-10T01:36:18;14.00;99.90
19292;DHT22;9779;51.756;7.450;2023-05-10T01:38:49;14.00;99.90
19292;DHT22;9779;51.756;7.450;2023-05-10T01:41:28;14.00;99.90
19292;DHT22;9779;51.756;7.450;2023-05-10T01:46:39;13.90;99.90
19292;DHT22;9779;51.756;7.450;2023-05-10T01:49:10;13.80;99.90
19292;DHT22;9779;51.756;7.450;2023-05-10T01:51:45;13.70;99.90
19292;DHT22;9779;51.756;7.450;2023-05-10T01:54:13;13.70;99.90
19292;DHT22;9779;51.756;7.450;2023-05-10T01:56:40;13.60;99.90
19292;DHT22;9779;51.756;7.450;2023-05-10T01:59:11;13.60;99.90
19292;DHT22;9779;51.756;7.450;2023-05-10T02:01:38;13.60;99.90
19292;DHT22;9779;51.756;7.450;2023-05-10T02:04:09;13.50;99.90
19292;DHT22;9779;51.756;7.450;2023-05-10T02:06:36;13.50;99.90
19292;DHT22;9779;51.756;7.450;2023-05-10T02:09:03;13.50;99.90
19292;DHT22;9779;51.756;7.450;2023-05-10T02:11:29;13.50;99.90
19292;DHT22;9779;51.756;7.450;2023-05-10T02:13:56;13.50;99.90
19292;DHT22;9779;51.756;7.450;2023-05-10T02:16:24;13.40;99.90
19292;DHT22;9779;51.756;7.450;2023-05-10T02:18:52;13.40;99.90
19292;DHT22;9779;51.756;7.450;2023-05-10T02:21:20;13.40;99.90
19292;DHT22;9779;51.756;7.450;2023-05-10T02:23:48;13.40;99.90
19292;DHT22;9779;51.756;7.450;2023-05-10T02:26:14;13.40;99.90
19292;DHT22;9779;51.756;7.450;2023-05-10T02:28:42;13.40;99.90
19292;DHT22;9779;51.756;7.450;2023-05-10T02:31:08;13.40;99.90
19292;DHT22;9779;51.756;7.450;2023-05-10T02:33:38;13.40;99.90
19292;DHT22;9779;51.756;7.450;2023-05-10T02:36:07;13.40;99.90
19292;DHT22;9779;51.756;7.450;2023-05-10T02:38:34;13.40;99.90
19292;DHT22;9779;51.756;7.450;2023-05-10T02:41:02;13.40;99.90
19292;DHT22;9779;51.756;7.450;2023-05-10T02:43:30;13.40;99.90
19292;DHT22;9779;51.756;7.450;2023-05-10T02:45:57;13.40;99.90
19292;DHT22;9779;51.756;7.450;2023-05-10T02:48:22;13.40;99.90
19292;DHT22;9779;51.756;7.450;2023-05-10T02:50:50;13.40;99.90
19292;DHT22;9779;51.756;7.450;2023-05-10T02:53:33;13.40;99.90
19292;DHT22;9779;51.756;7.450;2023-05-10T02:56:04;13.40;99.90
19292;DHT22;9779;51.756;7.450;2023-05-10T02:58:32;13.40;99.90
19292;DHT22;9779;51.756;7.450;2023-05-10T03:00:58;13.40;99.90
19292;DHT22;9779;51.756;7.450;2023-05-10T03:03:23;13.40;99.90
19292;DHT22;9779;51.756;7.450;2023-05-10T03:05:49;13.40;99.90
19292;DHT22;9779;51.756;7.450;2023-05-10T03:08:14;13.30;99.90
19292;DHT22;9779;51.756;7.450;2023-05-10T03:11:07;13.40;99.90
19292;DHT22;9779;51.756;7.450;2023-05-10T03:13:44;13.40;99.90
19292;DHT22;9779;51.756;7.450;2023-05-10T03:16:24;13.40;99.90
19292;DHT22;9779;51.756;7.450;2023-05-10T03:21:49;13.30;99.90
19292;DHT22;9779;51.756;7.450;2023-05-10T03:24:16;13.30;99.90
19292;DHT22;9779;51.756;7.450;2023-05-10T03:26:44;13.30;99.90
19292;DHT22;9779;51.756;7.450;2023-05-10T03:29:12;13.30;99.90
19292;DHT22;9779;51.756;7.450;2023-05-10T03:31:39;13.30;99.90
19292;DHT22;9779;51.756;7.450;2023-05-10T03:34:05;13.30;99.90
19292;DHT22;9779;51.756;7.450;2023-05-10T03:36:31;13.20;99.90
19292;DHT22;9779;51.756;7.450;2023-05-10T03:38:57;13.20;99.90
19292;DHT22;9779;51.756;7.450;2023-05-10T03:41:22;13.20;99.90
19292;DHT22;9779;51.756;7.450;2023-05-10T03:43:48;13.20;99.90
19292;DHT22;9779;51.756;7.450;2023-05-10T03:46:13;13.10;99.90
19292;DHT22;9779;51.756;7.450;2023-05-10T03:48:39;13.20;99.90
19292;DHT22;9779;51.756;7.450;2023-05-10T03:51:04;13.20;99.90
19292;DHT22;9779;51.756;7.450;2023-05-10T03:53:30;13.20;99.90
19292;DHT22;9779;51.756;7.450;2023-05-10T03:55:55;13.20;99.90
19292;DHT22;9779;51.756;7.450;2023-05-10T03:58:21;13.10;99.90
19292;DHT22;9779;51.756;7.450;2023-05-10T04:00:47;13.10;99.90
19292;DHT22;9779;51.756;7.450;2023-05-10T04:03:13;13.10;99.90
19292;DHT22;9779;51.756;7.450;2023-05-10T04:05:38;13.20;99.90
19292;DHT22;9779;51.756;7.450;2023-05-10T04:08:05;13.20;99.90
19292;DHT22;9779;51.756;7.450;2023-05-10T04:10:31;13.20;99.90
19292;DHT22;9779;51.756;7.450;2023-05-10T04:12:56;13.20;99.90
19292;DHT22;9779;51.756;7.450;2023-05-10T04:15:22;13.30;99.90
19292;DHT22;9779;51.756;7.450;2023-05-10T04:17:48;13.20;99.90
19292;DHT22;9779;51.756;7.450;2023-05-10T04:20:13;13.20;99.90
19292;DHT22;9779;51.756;7.450;2023-05-10T04:22:39;13.20;99.90
19292;DHT22;9779;51.756;7.450;2023-05-10T04:25:05;13.10;99.90
19292;DHT22;9779;51.756;7.450;2023-05-10T04:27:31;13.10;99.90
19292;DHT22;9779;51.756;7.450;2023-05-10T04:29:57;13.20;99.90
19292;DHT22;9779;51.756;7.450;2023-05-10T04:32:22;13.20;99.90
19292;DHT22;9779;51.756;7.450;2023-05-10T04:34:48;13.20;99.90
19292;DHT22;9779;51.756;7.450;2023-05-10T04:37:14;13.20;99.90
19292;DHT22;9779;51.756;7.450;2023-05-10T04:39:40;13.20;99.90
19292;DHT22;9779;51.756;7.450;2023-05-10T04:42:05;13.30;99.90
19292;DHT22;9779;51.756;7.450;2023-05-10T04:44:31;13.30;99.90
19292;DHT22;9779;51.756;7.450;2023-05-10T04:46:57;13.20;99.90
19292;DHT22;9779;51.756;7.450;2023-05-10T04:49:23;13.30;99.90
19292;DHT22;9779;51.756;7.450;2023-05-10T04:51:48;13.20;99.90
19292;DHT22;9779;51.756;7.450;2023-05-10T04:54:14;13.30;99.90
19292;DHT22;9779;51.756;7.450;2023-05-10T04:56:40;13.30;99.90
19292;DHT22;9779;51.756;7.450;2023-05-10T04:59:06;13.30;99.90
19292;DHT22;9779;51.756;7.450;2023-05-10T05:01:32;13.20;99.90
19292;DHT22;9779;51.756;7.450;2023-05-10T05:03:57;13.30;99.90
19292;DHT22;9779;51.756;7.450;2023-05-10T05:06:23;13.30;99.90
19292;DHT22;9779;51.756;7.450;2023-05-10T05:08:50;13.30;99.90
19292;DHT22;9779;51.756;7.450;2023-05-10T05:11:16;13.20;99.90
19292;DHT22;9779;51.756;7.450;2023-05-10T05:13:42;13.30;99.90
19292;DHT22;9779;51.756;7.450;2023-05-10T05:16:07;13.20;99.90
19292;DHT22;9779;51.756;7.450;2023-05-10T05:18:33;13.20;99.90
19292;DHT22;9779;51.756;7.450;2023-05-10T05:20:59;13.20;99.90
19292;DHT22;9779;51.756;7.450;2023-05-10T05:23:25;13.30;99.90
19292;DHT22;9779;51.756;7.450;2023-05-10T05:25:54;13.20;99.90
19292;DHT22;9779;51.756;7.450;2023-05-10T05:28:20;13.20;99.90
19292;DHT22;9779;51.756;7.450;2023-05-10T05:30:46;13.20;99.90
19292;DHT22;9779;51.756;7.450;2023-05-10T05:33:14;13.30;99.90
19292;DHT22;9779;51.756;7.450;2023-05-10T05:35:41;13.30;99.90
19292;DHT22;9779;51.756;7.450;2023-05-10T05:38:09;13.30;99.90
19292;DHT22;9779;51.756;7.450;2023-05-10T05:40:35;13.30;99.90
19292;DHT22;9779;51.756;7.450;2023-05-10T05:43:01;13.30;99.90
19292;DHT22;9779;51.756;7.450;2023-05-10T05:45:26;13.30;99.90
19292;DHT22;9779;51.756;7.450;2023-05-10T05:47:52;13.30;99.90
19292;DHT22;9779;51.756;7.450;2023-05-10T05:50:17;13.40;99.90
19292;DHT22;9779;51.756;7.450;2023-05-10T05:52:43;13.30;99.90
19292;DHT22;9779;51.756;7.450;2023-05-10T05:55:08;13.30;99.90
19292;DHT22;9779;51.756;7.450;2023-05-10T05:57:34;13.30;99.90
19292;DHT22;9779;51.756;7.450;2023-05-10T05:59:59;13.30;99.90
19292;DHT22;9779;51.756;7.450;2023-05-10T06:02:25;13.20;99.90
19292;DHT22;9779;51.756;7.450;2023-05-10T06:04:50;13.30;99.90
19292;DHT22;9779;51.756;7.450;2023-05-10T06:07:16;13.30;99.90
19292;DHT22;9779;51.756;7.450;2023-05-10T06:09:42;13.40;99.90
19292;DHT22;9779;51.756;7.450;2023-05-10T06:12:07;13.40;99.90
19292;DHT22;9779;51.756;7.450;2023-05-10T06:14:33;13.40;99.90
19292;DHT22;9779;51.756;7.450;2023-05-10T06:16:58;13.40;99.90
19292;DHT22;9779;51.756;7.450;2023-05-10T06:19:25;13.40;99.90
19292;DHT22;9779;51.756;7.450;2023-05-10T06:21:51;13.40;99.90
19292;DHT22;9779;51.756;7.450;2023-05-10T06:24:17;13.40;99.90
19292;DHT22;9779;51.756;7.450;2023-05-10T06:26:42;13.40;99.90
19292;DHT22;9779;51.756;7.450;2023-05-10T06:29:08;13.40;99.90
19292;DHT22;9779;51.756;7.450;2023-05-10T06:31:33;13.40;99.90
19292;DHT22;9779;51.756;7.450;2023-05-10T06:33:59;13.30;99.90
19292;DHT22;9779;51.756;7.450;2023-05-10T06:36:25;13.40;99.90
19292;DHT22;9779;51.756;7.450;2023-05-10T06:38:51;13.40;99.90
19292;DHT22;9779;51.756;7.450;2023-05-10T06:41:17;13.40;99.90
19292;DHT22;9779;51.756;7.450;2023-05-10T06:43:42;13.30;99.90
19292;DHT22;9779;51.756;7.450;2023-05-10T06:46:08;13.40;99.90
19292;DHT22;9779;51.756;7.450;2023-05-10T06:48:34;13.40;99.90
19292;DHT22;9779;51.756;7.450;2023-05-10T06:51:00;13.40;99.90
19292;DHT22;9779;51.756;7.450;2023-05-10T06:53:25;13.40;99.90
19292;DHT22;9779;51.756;7.450;2023-05-10T06:55:51;13.50;99.90
19292;DHT22;9779;51.756;7.450;2023-05-10T06:58:16;13.60;99.90
19292;DHT22;9779;51.756;7.450;2023-05-10T07:00:42;13.70;99.90
19292;DHT22;9779;51.756;7.450;2023-05-10T07:03:09;13.70;99.90
19292;DHT22;9779;51.756;7.450;2023-05-10T07:05:35;13.70;99.90
19292;DHT22;9779;51.756;7.450;2023-05-10T07:08:00;13.80;99.90
19292;DHT22;9779;51.756;7.450;2023-05-10T07:10:26;13.80;99.90
19292;DHT22;9779;51.756;7.450;2023-05-10T07:12:52;13.90;99.90
19292;DHT22;9779;51.756;7.450;2023-05-10T07:15:17;13.90;99.90
19292;DHT22;9779;51.756;7.450;2023-05-10T07:17:43;13.90;99.90
19292;DHT22;9779;51.756;7.450;2023-05-10T07:20:09;14.00;99.90
19292;DHT22;9779;51.756;7.450;2023-05-10T07:22:34;14.00;99.90
19292;DHT22;9779;51.756;7.450;2023-05-10T07:25:00;14.10;99.90
19292;DHT22;9779;51.756;7.450;2023-05-10T07:27:25;14.10;99.90
19292;DHT22;9779;51.756;7.450;2023-05-10T07:29:51;14.10;99.90
19292;DHT22;9779;51.756;7.450;2023-05-10T07:32:16;14.10;99.90
19292;DHT22;9779;51.756;7.450;2023-05-10T07:34:42;14.10;99.90
19292;DHT22;9779;51.756;7.450;2023-05-10T07:37:07;14.10;99.90
19292;DHT22;9779;51.756;7.450;2023-05-10T07:39:33;14.20;99.90
19292;DHT22;9779;51.756;7.450;2023-05-10T07:41:59;14.20;99.90
19292;DHT22;9779;51.756;7.450;2023-05-10T07:44:24;14.30;99.90
19292;DHT22;9779;51.756;7.450;2023-05-10T07:46:50;14.40;99.90
19292;DHT22;9779;51.756;7.450;2023-05-10T07:49:16;14.50;99.90
19292;DHT22;9779;51.756;7.450;2023-05-10T07:51:41;14.70;99.90
19292;DHT22;9779;51.756;7.450;2023-05-10T07:54:07;14.70;99.90
19292;DHT22;9779;51.756;7.450;2023-05-10T07:56:33;14.60;99.90
19292;DHT22;9779;51.756;7.450;2023-05-10T07:59:00;14.60;99.90
19292;DHT22;9779;51.756;7.450;2023-05-10T08:01:26;14.70;99.90
19292;DHT22;9779;51.756;7.450;2023-05-10T08:03:52;14.90;99.90
19292;DHT22;9779;51.756;7.450;2023-05-10T08:06:19;14.90;99.90
19292;DHT22;9779;51.756;7.450;2023-05-10T08:08:48;14.90;99.90
19292;DHT22;9779;51.756;7.450;2023-05-10T08:11:19;15.00;99.90
19292;DHT22;9779;51.756;7.450;2023-05-10T08:13:46;14.90;99.90
19292;DHT22;9779;51.756;7.450;2023-05-10T08:16:12;14.90;99.90
19292;DHT22;9779;51.756;7.450;2023-05-10T08:18:38;15.00;99.90
19292;DHT22;9779;51.756;7.450;2023-05-10T08:21:04;15.10;99.90
19292;DHT22;9779;51.756;7.450;2023-05-10T08:23:30;15.20;99.90
19292;DHT22;9779;51.756;7.450;2023-05-10T08:25:55;15.30;99.90
19292;DHT22;9779;51.756;7.450;2023-05-10T08:28:21;15.30;99.90
19292;DHT22;9779;51.756;7.450;2023-05-10T08:30:46;15.40;99.90
19292;DHT22;9779;51.756;7.450;2023-05-10T08:33:12;15.40;99.90
19292;DHT22;9779;51.756;7.450;2023-05-10T08:35:37;15.40;99.90
19292;DHT22;9779;51.756;7.450;2023-05-10T08:38:03;15.50;99.90
19292;DHT22;9779;51.756;7.450;2023-05-10T08:40:29;15.60;99.90
19292;DHT22;9779;51.756;7.450;2023-05-10T08:42:59;15.60;99.90
19292;DHT22;9779;51.756;7.450;2023-05-10T08:45:27;15.60;99.90
19292;DHT22;9779;51.756;7.450;2023-05-10T08:47:58;15.60;99.90
19292;DHT22;9779;51.756;7.450;2023-05-10T08:50:25;15.70;99.90
19292;DHT22;9779;51.756;7.450;2023-05-10T08:52:53;15.70;99.90
19292;DHT22;9779;51.756;7.450;2023-05-10T08:55:19;15.70;99.90
19292;DHT22;9779;51.756;7.450;2023-05-10T08:57:45;15.60;99.90
19292;DHT22;9779;51.756;7.450;2023-05-10T09:00:12;15.70;99.90
19292;DHT22;9779;51.756;7.450;2023-05-10T09:02:38;15.80;99.90
19292;DHT22;9779;51.756;7.450;2023-05-10T09:05:04;15.90;99.90
19292;DHT22;9779;51.756;7.450;2023-05-10T09:07:30;16.10;99.90
19292;DHT22;9779;51.756;7.450;2023-05-10T09:09:57;16.10;99.90
19292;DHT22;9779;51.756;7.450;2023-05-10T09:12:23;16.30;99.90
19292;DHT22;9779;51.756;7.450;2023-05-10T09:14:50;16.40;99.90
19292;DHT22;9779;51.756;7.450;2023-05-10T09:17:17;16.50;99.90
19292;DHT22;9779;51.756;7.450;2023-05-10T09:19:45;16.40;99.90
19292;DHT22;9779;51.756;7.450;2023-05-10T09:22:10;16.50;99.90
19292;DHT22;9779;51.756;7.450;2023-05-10T09:24:36;16.50;99.90
19292;DHT22;9779;51.756;7.450;2023-05-10T09:27:07;16.50;1.00
19292;DHT22;9779;51.756;7.450;2023-05-10T09:29:42;16.70;82.30
19292;DHT22;9779;51.756;7.450;2023-05-10T09:32:08;16.70;1.00
19292;DHT22;9779;51.756;7.450;2023-05-10T09:34:34;16.70;34.80
19292;DHT22;9779;51.756;7.450;2023-05-10T09:37:02;16.70;1.00
19292;DHT22;9779;51.756;7.450;2023-05-10T09:41:58;16.70;1.00
19292;DHT22;9779;51.756;7.450;2023-05-10T09:44:25;16.60;1.00
19292;DHT22;9779;51.756;7.450;2023-05-10T09:46:51;16.60;1.00
19292;DHT22;9779;51.756;7.450;2023-05-10T09:49:18;16.60;1.00
19292;DHT22;9779;51.756;7.450;2023-05-10T09:51:45;16.60;1.00
19292;DHT22;9779;51.756;7.450;2023-05-10T09:54:15;16.70;1.00
19292;DHT22;9779;51.756;7.450;2023-05-10T09:56:42;16.80;47.10
19292;DHT22;9779;51.756;7.450;2023-05-10T09:59:10;16.90;66.00
19292;DHT22;9779;51.756;7.450;2023-05-10T10:01:36;16.80;15.50
19292;DHT22;9779;51.756;7.450;2023-05-10T10:04:06;16.70;1.00
19292;DHT22;9779;51.756;7.450;2023-05-10T10:06:41;16.80;15.90
19292;DHT22;9779;51.756;7.450;2023-05-10T10:09:07;16.70;1.00
19292;DHT22;9779;51.756;7.450;2023-05-10T10:11:35;16.80;1.00
19292;DHT22;9779;51.756;7.450;2023-05-10T10:14:01;16.70;1.00
19292;DHT22;9779;51.756;7.450;2023-05-10T10:16:29;16.70;1.00
19292;DHT22;9779;51.756;7.450;2023-05-10T10:18:55;16.60;1.00
19292;DHT22;9779;51.756;7.450;2023-05-10T10:21:21;16.70;1.00
19292;DHT22;9779;51.756;7.450;2023-05-10T10:23:47;16.70;1.00
19292;DHT22;9779;51.756;7.450;2023-05-10T10:26:13;16.80;1.00
19292;DHT22;9779;51.756;7.450;2023-05-10T10:28:51;17.00;1.00
19292;DHT22;9779;51.756;7.450;2023-05-10T10:31:45;17.20;1.00
19292;DHT22;9779;51.756;7.450;2023-05-10T10:36:47;17.30;1.00
19292;DHT22;9779;51.756;7.450;2023-05-10T10:39:14;17.20;1.00
19292;DHT22;9779;51.756;7.450;2023-05-10T10:41:54;17.20;1.00
19292;DHT22;9779;51.756;7.450;2023-05-10T10:49:31;18.00;1.00
19292;DHT22;9779;51.756;7.450;2023-05-10T10:52:42;18.20;1.00
19292;DHT22;9779;51.756;7.450;2023-05-10T11:00:35;17.70;1.00
19292;DHT22;9779;51.756;7.450;2023-05-10T11:03:09;17.50;1.00
19292;DHT22;9779;51.756;7.450;2023-05-10T11:05:50;17.40;1.00
19292;DHT22;9779;51.756;7.450;2023-05-10T11:11:14;17.20;1.00
19292;DHT22;9779;51.756;7.450;2023-05-10T11:13:45;17.10;1.00
19292;DHT22;9779;51.756;7.450;2023-05-10T11:18:38;17.20;1.00
19292;DHT22;9779;51.756;7.450;2023-05-10T11:21:04;17.20;1.00
19292;DHT22;9779;51.756;7.450;2023-05-10T11:26:08;17.10;1.00
19292;DHT22;9779;51.756;7.450;2023-05-10T11:28:45;17.10;1.00
19292;DHT22;9779;51.756;7.450;2023-05-10T11:31:13;17.00;1.00
19292;DHT22;9779;51.756;7.450;2023-05-10T11:33:48;17.10;1.00
19292;DHT22;9779;51.756;7.450;2023-05-10T11:36:15;17.00;1.00
19292;DHT22;9779;51.756;7.450;2023-05-10T11:38:41;16.90;1.00
19292;DHT22;9779;51.756;7.450;2023-05-10T11:41:10;16.90;1.00
19292;DHT22;9779;51.756;7.450;2023-05-10T11:43:37;17.00;1.00
19292;DHT22;9779;51.756;7.450;2023-05-10T11:46:11;16.90;1.00
19292;DHT22;9779;51.756;7.450;2023-05-10T11:48:41;16.90;1.00
19292;DHT22;9779;51.756;7.450;2023-05-10T11:51:08;16.90;1.00
19292;DHT22;9779;51.756;7.450;2023-05-10T11:53:34;16.90;1.00
19292;DHT22;9779;51.756;7.450;2023-05-10T11:56:07;16.90;1.00
19292;DHT22;9779;51.756;7.450;2023-05-10T11:58:33;16.90;1.00
19292;DHT22;9779;51.756;7.450;2023-05-10T12:01:00;16.90;1.00
19292;DHT22;9779;51.756;7.450;2023-05-10T12:03:27;16.90;1.00
19292;DHT22;9779;51.756;7.450;2023-05-10T12:05:54;16.90;1.00
19292;DHT22;9779;51.756;7.450;2023-05-10T12:08:22;16.90;1.00
19292;DHT22;9779;51.756;7.450;2023-05-10T12:10:47;16.80;1.00
19292;DHT22;9779;51.756;7.450;2023-05-10T12:13:14;16.80;1.00
19292;DHT22;9779;51.756;7.450;2023-05-10T12:15:41;17.30;1.00
19292;DHT22;9779;51.756;7.450;2023-05-10T12:18:11;17.50;1.00
19292;DHT22;9779;51.756;7.450;2023-05-10T12:20:37;17.50;1.00
19292;DHT22;9779;51.756;7.450;2023-05-10T12:23:03;17.50;1.00
19292;DHT22;9779;51.756;7.450;2023-05-10T12:25:38;17.50;1.00
19292;DHT22;9779;51.756;7.450;2023-05-10T12:28:06;17.70;1.00
19292;DHT22;9779;51.756;7.450;2023-05-10T12:30:34;17.90;1.00
19292;DHT22;9779;51.756;7.450;2023-05-10T12:33:01;18.00;1.00
19292;DHT22;9779;51.756;7.450;2023-05-10T12:35:30;17.90;1.00
19292;DHT22;9779;51.756;7.450;2023-05-10T12:37:55;17.90;1.00
19292;DHT22;9779;51.756;7.450;2023-05-10T12:40:21;17.70;1.00
19292;DHT22;9779;51.756;7.450;2023-05-10T12:42:47;17.90;1.00
19292;DHT22;9779;51.756;7.450;2023-05-10T12:45:14;17.90;1.00
19292;DHT22;9779;51.756;7.450;2023-05-10T12:47:39;17.90;1.00
19292;DHT22;9779;51.756;7.450;2023-05-10T12:50:05;17.90;1.00
19292;DHT22;9779;51.756;7.450;2023-05-10T12:52:31;18.10;1.00
19292;DHT22;9779;51.756;7.450;2023-05-10T12:54:58;18.40;1.00
19292;DHT22;9779;51.756;7.450;2023-05-10T12:57:24;18.80;1.00
19292;DHT22;9779;51.756;7.450;2023-05-10T12:59:49;19.00;99.90
19292;DHT22;9779;51.756;7.450;2023-05-10T13:02:15;19.00;99.90
19292;DHT22;9779;51.756;7.450;2023-05-10T13:04:43;19.00;99.90
19292;DHT22;9779;51.756;7.450;2023-05-10T13:07:09;19.10;99.90
19292;DHT22;9779;51.756;7.450;2023-05-10T13:09:35;19.30;99.90
19292;DHT22;9779;51.756;7.450;2023-05-10T13:12:01;19.50;98.90
19292;DHT22;9779;51.756;7.450;2023-05-10T13:14:27;19.60;99.90
19292;DHT22;9779;51.756;7.450;2023-05-10T13:16:52;19.60;1.00
19292;DHT22;9779;51.756;7.450;2023-05-10T13:19:18;19.60;1.00
19292;DHT22;9779;51.756;7.450;2023-05-10T13:21:44;19.80;1.00
19292;DHT22;9779;51.756;7.450;2023-05-10T13:24:12;19.90;1.00
19292;DHT22;9779;51.756;7.450;2023-05-10T13:26:41;19.90;99.90
19292;DHT22;9779;51.756;7.450;2023-05-10T13:29:06;19.90;1.00
19292;DHT22;9779;51.756;7.450;2023-05-10T13:31:33;19.80;1.00
19292;DHT22;9779;51.756;7.450;2023-05-10T13:33:59;19.70;1.00
19292;DHT22;9779;51.756;7.450;2023-05-10T13:36:25;19.60;1.00
19292;DHT22;9779;51.756;7.450;2023-05-10T13:38:50;19.50;99.90
19292;DHT22;9779;51.756;7.450;2023-05-10T13:41:16;19.50;99.90
19292;DHT22;9779;51.756;7.450;2023-05-10T13:43:42;19.80;99.90
19292;DHT22;9779;51.756;7.450;2023-05-10T13:46:07;19.80;99.90
19292;DHT22;9779;51.756;7.450;2023-05-10T13:48:33;19.90;1.00
19292;DHT22;9779;51.756;7.450;2023-05-10T13:50:58;20.20;1.00
19292;DHT22;9779;51.756;7.450;2023-05-10T13:53:24;20.50;1.00
19292;DHT22;9779;51.756;7.450;2023-05-10T13:55:50;20.60;90.90
19292;DHT22;9779;51.756;7.450;2023-05-10T13:58:15;20.60;1.00
19292;DHT22;9779;51.756;7.450;2023-05-10T14:00:41;20.80;99.90
19292;DHT22;9779;51.756;7.450;2023-05-10T14:03:06;20.70;99.90
19292;DHT22;9779;51.756;7.450;2023-05-10T14:05:34;20.80;1.00
19292;DHT22;9779;51.756;7.450;2023-05-10T14:07:59;21.00;1.00
19292;DHT22;9779;51.756;7.450;2023-05-10T14:10:25;21.10;1.00
19292;DHT22;9779;51.756;7.450;2023-05-10T14:12:51;21.40;1.00
19292;DHT22;9779;51.756;7.450;2023-05-10T14:15:16;21.10;99.90
19292;DHT22;9779;51.756;7.450;2023-05-10T14:17:42;21.20;99.90
19292;DHT22;9779;51.756;7.450;2023-05-10T14:20:07;20.90;1.00
19292;DHT22;9779;51.756;7.450;2023-05-10T14:22:34;20.90;99.90
19292;DHT22;9779;51.756;7.450;2023-05-10T14:25:00;21.10;1.00
19292;DHT22;9779;51.756;7.450;2023-05-10T14:27:25;21.10;1.00
19292;DHT22;9779;51.756;7.450;2023-05-10T14:29:51;21.30;1.00
19292;DHT22;9779;51.756;7.450;2023-05-10T14:32:18;21.50;99.90
19292;DHT22;9779;51.756;7.450;2023-05-10T14:34:43;21.00;1.00
19292;DHT22;9779;51.756;7.450;2023-05-10T14:37:10;21.00;99.90
19292;DHT22;9779;51.756;7.450;2023-05-10T14:39:36;21.00;93.70
19292;DHT22;9779;51.756;7.450;2023-05-10T14:42:03;21.40;99.90
19292;DHT22;9779;51.756;7.450;2023-05-10T14:44:29;21.40;99.90
19292;DHT22;9779;51.756;7.450;2023-05-10T14:46:54;21.60;1.00
19292;DHT22;9779;51.756;7.450;2023-05-10T14:49:21;21.60;1.00
19292;DHT22;9779;51.756;7.450;2023-05-10T14:51:48;21.30;1.00
19292;DHT22;9779;51.756;7.450;2023-05-10T14:54:13;21.00;1.00
19292;DHT22;9779;51.756;7.450;2023-05-10T14:56:39;20.80;1.00
19292;DHT22;9779;51.756;7.450;2023-05-10T14:59:06;20.80;1.00
19292;DHT22;9779;51.756;7.450;2023-05-10T15:01:32;20.60;99.90
19292;DHT22;9779;51.756;7.450;2023-05-10T15:03:58;20.70;1.00
19292;DHT22;9779;51.756;7.450;2023-05-10T15:06:30;21.00;1.00
19292;DHT22;9779;51.756;7.450;2023-05-10T15:08:57;20.80;99.90
19292;DHT22;9779;51.756;7.450;2023-05-10T15:11:22;20.90;99.90
19292;DHT22;9779;51.756;7.450;2023-05-10T15:13:48;21.00;99.90
19292;DHT22;9779;51.756;7.450;2023-05-10T15:16:13;20.70;1.00
19292;DHT22;9779;51.756;7.450;2023-05-10T15:18:39;20.50;1.00
19292;DHT22;9779;51.756;7.450;2023-05-10T15:21:04;20.30;1.00
19292;DHT22;9779;51.756;7.450;2023-05-10T15:23:30;20.00;1.00
19292;DHT22;9779;51.756;7.450;2023-05-10T15:25:55;20.00;1.00
19292;DHT22;9779;51.756;7.450;2023-05-10T15:28:21;19.90;99.90
19292;DHT22;9779;51.756;7.450;2023-05-10T15:30:47;19.80;93.00
19292;DHT22;9779;51.756;7.450;2023-05-10T15:33:13;19.80;1.00
19292;DHT22;9779;51.756;7.450;2023-05-10T15:35:39;19.80;99.90
19292;DHT22;9779;51.756;7.450;2023-05-10T15:38:05;19.90;99.90
19292;DHT22;9779;51.756;7.450;2023-05-10T15:40:31;20.00;1.00
19292;DHT22;9779;51.756;7.450;2023-05-10T15:42:56;19.90;99.90
19292;DHT22;9779;51.756;7.450;2023-05-10T15:45:22;20.00;1.00
19292;DHT22;9779;51.756;7.450;2023-05-10T15:47:48;19.70;99.90
19292;DHT22;9779;51.756;7.450;2023-05-10T15:50:14;19.30;1.00
19292;DHT22;9779;51.756;7.450;2023-05-10T15:52:41;19.30;99.90
19292;DHT22;9779;51.756;7.450;2023-05-10T15:55:07;19.40;1.00
19292;DHT22;9779;51.756;7.450;2023-05-10T15:57:38;19.40;3.80
19292;DHT22;9779;51.756;7.450;2023-05-10T16:00:04;19.30;99.90
19292;DHT22;9779;51.756;7.450;2023-05-10T16:02:30;19.40;1.00
19292;DHT22;9779;51.756;7.450;2023-05-10T16:04:56;19.40;1.00
19292;DHT22;9779;51.756;7.450;2023-05-10T16:07:21;19.40;1.00
19292;DHT22;9779;51.756;7.450;2023-05-10T16:09:47;19.30;1.00
19292;DHT22;9779;51.756;7.450;2023-05-10T16:12:14;19.40;1.00
19292;DHT22;9779;51.756;7.450;2023-05-10T16:14:39;19.30;1.00
19292;DHT22;9779;51.756;7.450;2023-05-10T16:17:05;19.50;99.90
19292;DHT22;9779;51.756;7.450;2023-05-10T16:19:30;19.60;1.00
19292;DHT22;9779;51.756;7.450;2023-05-10T16:21:56;19.50;1.00
19292;DHT22;9779;51.756;7.450;2023-05-10T16:24:21;19.60;1.00
19292;DHT22;9779;51.756;7.450;2023-05-10T16:26:47;19.80;1.00
19292;DHT22;9779;51.756;7.450;2023-05-10T16:29:12;19.90;1.00